Time;durP1;ratioP1;P1;durP2;ratioP2;P2;SDS_P1;SDS_P2;PMS_P1;PMS_P2;Temp;Humidity;BMP_temperature;BMP_pressure;BME280_temperature;BME280_humidity;BME280_pressure;Samples;Min_cycle;Max_cycle;Signal;HPM_P1;HPM_P2
2022/06/03 04:50:06;;;;;;;;;;;;;;;20.45;66.62;96858.47;4212459;27;10429;-72
2022/06/03 04:53:07;;;;;;;;;;;;;;;20.76;66.08;96856.88;4227686;28;6394;-72
2022/06/03 04:55:52;;;;;;;;;;;;;;;20.97;65.76;96866.72;4226083;28;5713;-72
2022/06/03 04:58:35;;;;;;;;;;;;;;;21.13;65.50;96857.69;4222956;28;5664;-72
2022/06/03 05:01:09;;;;;;;;;;;;;;;21.25;65.53;96845.91;4206932;28;5783;-72
2022/06/03 05:03:50;;;;;;;;;;;;;;;21.35;65.42;96843.31;4217324;28;5800;-72
2022/06/03 05:06:48;;;;;;;;;;;;;;;21.45;64.72;96844.19;4232253;28;5657;-69
2022/06/03 05:09:47;;;;;;;;;;;;;;;21.49;64.80;96847.16;4228848;28;5778;-71
2022/06/03 05:12:28;;;;;;;;;;;;;;;21.51;64.34;96848.50;4160934;28;5707;-70
2022/06/03 05:15:12;;;;;;;;;;;;;;;21.56;64.42;96844.25;4162347;28;5711;-75
2022/06/03 05:17:45;;;;;;;;;;;;;;;21.60;64.00;96834.56;4145498;28;5846;-69
2022/06/03 05:20:16;;;;;;;;;;;;;;;21.61;63.68;96825.44;4135355;28;5715;-67
2022/06/03 05:22:50;;;;;;;;;;;;;;;21.63;63.59;96829.50;4152189;28;5775;-69
2022/06/03 05:25:38;;;;;;;;;;;;;;;21.66;63.58;96820.91;4131969;28;5771;-69
2022/06/03 05:28:22;;;;;;;;;;;;;;;21.68;63.18;96817.94;4114123;28;5841;-69
2022/06/03 05:30:41;;;;;;;;;;;;;;;21.70;63.59;96807.72;4110462;28;5840;-69
2022/06/03 05:33:12;;;;;;;;;;;;;;;21.71;63.42;96791.31;4084644;29;5837;-68
2022/06/03 05:35:35;;;;;;;;;;;;;;;21.76;63.41;96791.34;4109222;28;5776;-68
2022/06/03 05:38:00;;;;;;;;;;;;;;;21.75;63.36;96791.59;4113552;28;5867;-67
2022/06/03 05:40:25;;;;;;;;;;;;;;;21.76;63.54;96785.16;4099166;28;5935;-68
2022/06/03 05:42:51;;;;;;;;;;;;;;;21.80;63.38;96786.22;4097686;28;5755;-69
2022/06/03 05:45:29;;;;;;;;;;;;;;;21.86;63.25;96787.88;4113528;28;5848;-68
2022/06/03 05:47:38;;;;;;;;;;;;;;;21.90;63.26;96791.66;4119710;28;6035;-68
2022/06/03 05:49:51;;;;;;;;;;;;;;;21.92;63.18;96789.50;4170856;28;5780;-68
2022/06/03 05:52:08;;;;;;;;;;;;;;;21.91;63.10;96787.06;4167677;28;5692;-68
2022/06/03 05:54:29;;;;;;;;;;;;;;;21.92;63.14;96783.31;4166473;28;5892;-69
2022/06/03 05:56:43;;;;;;;;;;;;;;;21.95;63.12;96790.84;4167964;28;5696;-69
2022/06/03 05:58:53;;;;;;;;;;;;;;;21.98;63.11;96787.63;4167601;28;5691;-68
2022/06/03 06:01:17;;;;;;;;;;;;;;;21.99;62.56;96783.88;4168208;28;5692;-69
2022/06/03 06:03:36;;;;;;;;;;;;;;;22.03;62.94;96784.94;4170523;28;5704;-68
2022/06/03 06:05:49;;;;;;;;;;;;;;;22.07;63.00;96784.16;4219957;28;7687;-70
2022/06/03 06:08:04;;;;;;;;;;;;;;;22.13;62.68;96784.19;4219080;28;5668;-68
2022/06/03 06:10:15;;;;;;;;;;;;;;;22.15;62.64;96777.44;4218583;28;5720;-69
2022/06/03 06:12:41;;;;;;;;;;;;;;;22.18;62.26;96773.41;4219794;28;5676;-69
2022/06/03 06:14:57;;;;;;;;;;;;;;;22.23;62.33;96773.44;4203763;28;5612;-67
2022/06/03 06:17:10;;;;;;;;;;;;;;;22.29;62.52;96761.56;4218215;28;5726;-68
2022/06/03 06:19:23;;;;;;;;;;;;;;;22.40;62.27;96759.69;4217558;28;5660;-69
2022/06/03 06:22:00;;;;;;;;;;;;;;;22.46;61.93;96759.44;4219258;28;5758;-69
2022/06/03 06:24:14;;;;;;;;;;;;;;;22.50;61.89;96751.63;4219031;28;5705;-70
2022/06/03 06:26:46;;;;;;;;;;;;;;;22.56;61.50;96747.84;4202539;28;5686;-68
2022/06/03 06:29:05;;;;;;;;;;;;;;;22.62;61.88;96744.06;4210616;28;5750;-68
2022/06/03 06:31:36;;;;;;;;;;;;;;;22.70;61.19;96750.81;4217212;28;7738;-67
2022/06/03 06:34:12;;;;;;;;;;;;;;;22.77;61.18;96768.31;4216871;28;5700;-68
2022/06/03 06:36:50;;;;;;;;;;;;;;;22.79;61.41;96776.13;4212860;28;5672;-68
2022/06/03 06:39:08;;;;;;;;;;;;;;;22.77;61.06;96776.41;4199081;28;5756;-69
2022/06/03 06:41:38;;;;;;;;;;;;;;;22.78;61.43;96777.22;4211724;28;5698;-68
2022/06/03 06:43:47;;;;;;;;;;;;;;;22.79;61.36;96781.53;4217854;28;5673;-68
2022/06/03 06:45:58;;;;;;;;;;;;;;;22.80;61.20;96789.34;4218672;28;5683;-68
2022/06/03 06:48:10;;;;;;;;;;;;;;;22.84;60.77;96793.13;4215068;28;5692;-69
2022/06/03 06:50:21;;;;;;;;;;;;;;;22.87;61.03;96794.47;4202442;28;5797;-68
2022/06/03 06:52:40;;;;;;;;;;;;;;;22.90;60.82;96796.63;4211669;28;5833;-68
2022/06/03 06:54:56;;;;;;;;;;;;;;;22.92;60.61;96803.38;4217093;28;5814;-67
2022/06/03 06:57:07;;;;;;;;;;;;;;;22.94;60.77;96797.69;4217505;28;5672;-68
2022/06/03 06:59:16;;;;;;;;;;;;;;;22.99;60.37;96799.56;4216317;28;5676;-65
2022/06/03 07:01:25;;;;;;;;;;;;;;;23.03;60.59;96793.38;4218204;28;5727;-68
2022/06/03 07:03:45;;;;;;;;;;;;;;;23.08;60.04;96793.34;4204839;28;5656;-68
2022/06/03 07:05:52;;;;;;;;;;;;;;;23.09;60.05;96783.38;4219115;28;5668;-68
2022/06/03 07:08:04;;;;;;;;;;;;;;;23.14;60.32;96778.78;4218483;28;5672;-67
2022/06/03 07:10:15;;;;;;;;;;;;;;;23.21;59.96;96784.69;4211472;28;5781;-67
2022/06/03 07:12:22;;;;;;;;;;;;;;;23.24;60.19;96794.16;4204503;28;5713;-66
2022/06/03 07:15:03;;;;;;;;;;;;;;;23.27;60.25;96798.97;4215516;28;5677;-67
2022/06/03 07:19:50;;;;;;;;;;;;;;;23.33;59.57;96805.16;4202100;28;5692;-69
2022/06/03 07:22:05;;;;;;;;;;;;;;;23.35;59.47;96803.03;4205922;28;5743;-70
2022/06/03 07:24:22;;;;;;;;;;;;;;;23.37;59.37;96798.97;4218259;28;5692;-69
2022/06/03 07:26:36;;;;;;;;;;;;;;;23.39;59.30;96795.97;4216655;28;5680;-70
2022/06/03 07:28:48;;;;;;;;;;;;;;;23.40;59.50;96786.81;4218498;28;5668;-70
2022/06/03 07:30:56;;;;;;;;;;;;;;;23.41;59.39;96772.22;4218399;28;5672;-65
2022/06/03 07:33:05;;;;;;;;;;;;;;;23.42;59.52;96763.84;4214215;28;5842;-69
2022/06/03 07:35:17;;;;;;;;;;;;;;;23.45;59.44;96752.53;4201738;28;5725;-68
2022/06/03 07:37:25;;;;;;;;;;;;;;;23.50;59.36;96749.00;4201557;28;5725;-63
2022/06/03 07:39:40;;;;;;;;;;;;;;;23.53;59.20;96749.25;4211216;28;5890;-79
2022/06/03 07:41:50;;;;;;;;;;;;;;;23.56;58.98;96747.06;4214215;28;5680;-75
2022/06/03 07:43:58;;;;;;;;;;;;;;;23.59;59.03;96747.38;4217429;28;5671;-73
2022/06/03 07:46:07;;;;;;;;;;;;;;;23.61;59.12;96745.19;4216289;28;6398;-73
2022/06/03 07:48:14;;;;;;;;;;;;;;;23.65;59.08;96751.66;4217590;28;5677;-72
2022/06/03 07:50:21;;;;;;;;;;;;;;;23.66;58.68;96747.84;4217738;28;6365;-67
2022/06/03 07:52:32;;;;;;;;;;;;;;;23.69;58.63;96751.91;4218235;28;5660;-68
2022/06/03 07:54:36;;;;;;;;;;;;;;;23.69;58.88;96746.53;4217334;28;5660;-71
2022/06/03 07:56:41;;;;;;;;;;;;;;;23.71;58.66;96755.13;4217191;28;5767;-70
2022/06/03 07:58:45;;;;;;;;;;;;;;;23.72;58.94;96744.06;4217977;28;5077;-69
2022/06/03 08:00:50;;;;;;;;;;;;;;;23.73;58.77;96740.28;4217869;28;5760;-69
2022/06/03 08:03:08;;;;;;;;;;;;;;;23.73;58.92;96734.88;4218074;28;5672;-67
2022/06/03 08:05:17;;;;;;;;;;;;;;;23.74;58.95;96743.78;4216420;28;5672;-67
2022/06/03 08:12:07;;;;;;;;;;;;;;;23.85;58.57;96774.22;4216003;28;5684;-69
2022/06/03 08:14:10;;;;;;;;;;;;;;;23.83;59.10;96779.91;4217608;28;5769;-68
2022/06/03 08:16:29;;;;;;;;;;;;;;;23.82;58.72;96772.91;4217021;28;5781;-67
2022/06/03 08:18:40;;;;;;;;;;;;;;;23.84;58.91;96778.03;4217625;28;5684;-71
2022/06/03 08:20:48;;;;;;;;;;;;;;;23.86;58.62;96765.84;4217008;28;5751;-66
2022/06/03 08:22:52;;;;;;;;;;;;;;;23.90;59.11;96763.38;4217482;28;5680;-66
2022/06/03 08:24:58;;;;;;;;;;;;;;;23.94;58.87;96767.97;4217514;28;5673;-66
2022/06/03 08:27:06;;;;;;;;;;;;;;;23.95;59.09;96760.69;4216840;28;5676;-66
2022/06/03 08:29:15;;;;;;;;;;;;;;;23.94;58.80;96767.16;4217618;28;5775;-65
2022/06/03 08:31:23;;;;;;;;;;;;;;;23.92;58.46;96767.44;4217414;28;5672;-66
2022/06/03 08:33:35;;;;;;;;;;;;;;;23.89;58.77;96764.47;4217628;28;5664;-66
2022/06/03 08:35:43;;;;;;;;;;;;;;;23.89;58.45;96753.69;4216507;28;5709;-66
2022/06/03 08:37:51;;;;;;;;;;;;;;;23.93;58.33;96777.16;4217393;28;6458;-65
2022/06/03 08:39:58;;;;;;;;;;;;;;;23.95;58.24;96785.78;4214863;28;6343;-66
2022/06/03 08:42:16;;;;;;;;;;;;;;;23.97;58.23;96780.09;4216910;28;5656;-66
2022/06/03 08:44:30;;;;;;;;;;;;;;;23.97;58.57;96785.50;4217311;28;5667;-66
2022/06/03 08:46:37;;;;;;;;;;;;;;;23.96;58.05;96778.50;4216558;28;5700;-65
2022/06/03 08:48:47;;;;;;;;;;;;;;;23.98;58.33;96776.31;4215140;28;5977;-66
2022/06/03 08:50:56;;;;;;;;;;;;;;;23.99;57.88;96778.72;4214129;28;5683;-66
2022/06/03 08:53:05;;;;;;;;;;;;;;;24.02;57.95;96775.50;4215405;28;5685;-67
2022/06/03 08:55:25;;;;;;;;;;;;;;;24.06;57.84;96768.44;4216450;28;5692;-67
2022/06/03 08:57:36;;;;;;;;;;;;;;;24.10;57.68;96764.06;4216056;28;5153;-65
2022/06/03 08:59:43;;;;;;;;;;;;;;;24.15;57.27;96774.06;4217403;28;5755;-65
2022/06/03 09:01:57;;;;;;;;;;;;;;;24.14;56.96;96785.94;4217463;28;5683;-65
2022/06/03 09:04:12;;;;;;;;;;;;;;;24.14;56.94;96793.25;4217120;28;5731;-72
2022/06/03 09:06:44;;;;;;;;;;;;;;;24.04;57.31;96794.91;4181714;28;6579;-74
2022/06/03 09:08:55;;;;;;;;;;;;;;;23.96;57.50;96800.09;4215482;28;5668;-64
2022/06/03 09:11:02;;;;;;;;;;;;;;;23.85;57.46;96810.13;4217609;28;5691;-68
2022/06/03 09:13:12;;;;;;;;;;;;;;;23.80;58.01;96829.06;4215540;28;5767;-64
2022/06/03 09:15:21;;;;;;;;;;;;;;;23.78;58.17;96832.03;4215885;28;5779;-65
2022/06/03 09:17:37;;;;;;;;;;;;;;;24.10;57.60;96853.19;4216776;28;5672;-68
2022/06/03 09:19:46;;;;;;;;;;;;;;;24.13;57.46;96896.97;4217148;28;5728;-70
2022/06/03 09:21:53;;;;;;;;;;;;;;;24.01;57.42;96919.69;4216765;28;5676;-69
2022/06/03 09:24:02;;;;;;;;;;;;;;;23.93;57.95;96920.25;4216058;28;5899;-70
2022/06/03 09:26:12;;;;;;;;;;;;;;;23.83;58.28;96908.69;4220700;28;7907;-71
2022/06/03 09:28:18;;;;;;;;;;;;;;;23.50;59.10;96900.09;4219132;28;5742;-71
2022/06/03 09:30:32;;;;;;;;;;;;;;;23.42;59.20;96885.25;4220635;28;5672;-70
2022/06/03 09:32:41;;;;;;;;;;;;;;;23.55;58.96;96883.88;4216492;28;5779;-73
2022/06/03 09:34:49;;;;;;;;;;;;;;;23.51;58.77;96874.72;4219457;28;5680;-70
2022/06/03 09:36:52;;;;;;;;;;;;;;;23.41;58.39;96880.13;4220254;28;5665;-72
2022/06/03 09:39:19;;;;;;;;;;;;;;;23.35;58.68;96902.81;4218810;28;5941;-72
2022/06/03 09:41:26;;;;;;;;;;;;;;;23.38;58.93;96929.25;4221260;28;7842;-76
2022/06/03 09:43:34;;;;;;;;;;;;;;;23.34;58.66;96938.97;4205482;28;5844;-69
2022/06/03 09:45:45;;;;;;;;;;;;;;;23.32;58.92;96944.59;4219152;28;5700;-70
2022/06/03 09:47:50;;;;;;;;;;;;;;;23.29;58.85;96953.25;4203204;28;5702;-77
2022/06/03 09:49:54;;;;;;;;;;;;;;;23.27;58.90;96960.81;4207132;28;5857;-74
2022/06/03 09:51:59;;;;;;;;;;;;;;;23.27;59.29;96949.22;4220623;28;5688;-72
2022/06/03 09:54:03;;;;;;;;;;;;;;;23.26;58.75;96958.38;4218740;28;5688;-76
2022/06/03 09:56:14;;;;;;;;;;;;;;;23.23;58.85;96965.13;4203632;28;5693;-74
2022/06/03 09:58:20;;;;;;;;;;;;;;;23.19;59.35;96975.63;4218042;28;5762;-72
2022/06/03 10:00:27;;;;;;;;;;;;;;;23.15;59.63;96984.53;4219976;28;5835;-72
2022/06/03 10:02:31;;;;;;;;;;;;;;;23.12;59.72;96977.81;4219240;28;5664;-69
2022/06/03 10:04:34;;;;;;;;;;;;;;;23.09;59.41;96964.84;4217430;28;5800;-71
2022/06/03 10:06:46;;;;;;;;;;;;;;;23.04;59.69;96962.16;4218223;28;5621;-71
2022/06/03 10:13:38;;;;;;;;;;;;;;;22.94;59.74;96973.72;4203211;28;5710;-71
2022/06/03 10:15:46;;;;;;;;;;;;;;;22.96;59.38;96962.66;4216647;28;5751;-70
2022/06/03 10:17:51;;;;;;;;;;;;;;;22.97;59.63;96966.97;4217516;28;5616;-70
2022/06/03 10:19:54;;;;;;;;;;;;;;;22.97;59.26;96977.78;4218310;28;5704;-70
2022/06/03 10:21:59;;;;;;;;;;;;;;;22.96;59.23;96981.53;4218224;28;5601;-70
2022/06/03 10:24:05;;;;;;;;;;;;;;;22.97;59.54;96988.56;4218785;28;5802;-70
2022/06/03 10:26:18;;;;;;;;;;;;;;;22.97;59.15;96985.84;4218481;28;5081;-71
2022/06/03 10:28:21;;;;;;;;;;;;;;;22.93;59.25;97009.03;4218040;28;5683;-71
2022/06/03 10:30:29;;;;;;;;;;;;;;;22.95;59.46;97028.44;4218849;28;5676;-69
2022/06/03 10:32:33;;;;;;;;;;;;;;;22.96;59.51;97032.75;4219710;28;6476;-71
2022/06/03 10:34:38;;;;;;;;;;;;;;;22.98;59.46;97041.41;4218604;28;7699;-70
2022/06/03 10:36:44;;;;;;;;;;;;;;;22.94;59.76;97035.72;4219922;28;5751;-70
2022/06/03 10:38:51;;;;;;;;;;;;;;;22.93;59.60;97030.63;4218919;28;5680;-70
2022/06/03 10:40:54;;;;;;;;;;;;;;;22.87;59.48;97024.38;4211473;28;5779;-70
2022/06/03 10:42:59;;;;;;;;;;;;;;;22.82;60.02;97029.75;4219303;28;5665;-70
2022/06/03 10:45:03;;;;;;;;;;;;;;;22.80;60.09;97047.25;4218979;28;5886;-71
2022/06/03 10:47:13;;;;;;;;;;;;;;;22.79;60.13;97041.06;4219556;28;5669;-71
2022/06/03 10:49:16;;;;;;;;;;;;;;;22.75;60.40;97039.94;4217968;28;5677;-71
2022/06/03 11:01:06;;;;;;;;;;;;;;;22.70;60.13;97037.25;4218903;28;5755;-72
2022/06/03 11:01:27;;;;;;;;;;;;;;;22.77;60.23;97042.41;4202091;28;5711;-71
2022/06/03 11:03:32;;;;;;;;;;;;;;;22.80;60.18;97041.88;4202149;28;5800;-71
2022/06/03 11:05:38;;;;;;;;;;;;;;;22.85;60.08;97041.91;4213122;28;5755;-71
2022/06/03 11:07:42;;;;;;;;;;;;;;;22.90;60.29;97031.16;4217703;28;5697;-74
2022/06/03 11:09:55;;;;;;;;;;;;;;;22.94;60.18;97040.31;4218029;28;5910;-72
2022/06/03 11:12:00;;;;;;;;;;;;;;;22.99;60.46;97034.94;4218717;28;5671;-70
2022/06/03 11:14:27;;;;;;;;;;;;;;;23.06;60.57;97029.28;4218603;28;5671;-71
2022/06/03 11:16:30;;;;;;;;;;;;;;;23.10;60.67;97023.06;4200727;28;5654;-70
2022/06/03 11:18:34;;;;;;;;;;;;;;;23.17;60.60;97029.03;4201845;28;5771;-71
2022/06/03 11:20:41;;;;;;;;;;;;;;;23.20;60.63;97025.78;4216066;28;5784;-73
2022/06/03 11:22:45;;;;;;;;;;;;;;;23.24;61.14;97026.91;4218066;28;5680;-71
2022/06/03 11:25:12;;;;;;;;;;;;;;;23.30;60.66;97016.09;4216064;28;5844;-71
2022/06/03 11:27:17;;;;;;;;;;;;;;;23.36;60.43;97015.03;4218672;28;5677;-71
2022/06/03 11:29:31;;;;;;;;;;;;;;;23.38;60.49;97016.38;4218776;28;5751;-71
2022/06/03 11:31:38;;;;;;;;;;;;;;;23.43;60.60;97007.47;4216528;28;5680;-71
2022/06/03 11:33:48;;;;;;;;;;;;;;;23.49;60.66;97015.31;4218532;28;5687;-71
2022/06/03 11:35:54;;;;;;;;;;;;;;;23.55;60.50;97010.69;4218723;28;5696;-71
2022/06/03 11:38:03;;;;;;;;;;;;;;;23.60;60.39;97012.63;4218012;28;5664;-71
2022/06/03 11:40:20;;;;;;;;;;;;;;;23.61;60.44;97015.06;4217649;28;6095;-71
2022/06/03 11:42:28;;;;;;;;;;;;;;;23.65;60.58;97021.53;4218720;28;5762;-71
2022/06/03 11:44:38;;;;;;;;;;;;;;;23.63;60.68;97021.00;4218595;28;5694;-72
2022/06/03 11:46:51;;;;;;;;;;;;;;;23.63;60.34;97012.09;4218253;28;5705;-72
2022/06/03 11:48:55;;;;;;;;;;;;;;;23.67;60.25;97005.06;4214964;28;5668;-72
2022/06/03 11:50:59;;;;;;;;;;;;;;;23.67;60.39;97005.06;4218709;28;5661;-71
2022/06/03 11:53:03;;;;;;;;;;;;;;;23.69;60.66;97006.41;4217189;28;5676;-72
2022/06/03 11:55:07;;;;;;;;;;;;;;;23.70;60.41;96999.94;4218057;28;5657;-72
2022/06/03 11:57:15;;;;;;;;;;;;;;;23.68;60.74;96994.00;4218459;28;5739;-72
2022/06/03 11:59:25;;;;;;;;;;;;;;;23.70;60.77;96997.25;4216005;28;5620;-72
2022/06/03 12:01:36;;;;;;;;;;;;;;;23.70;60.88;96989.16;4216859;28;5655;-72
2022/06/03 12:03:45;;;;;;;;;;;;;;;23.68;60.51;96974.31;4217592;28;5668;-72
2022/06/03 12:05:55;;;;;;;;;;;;;;;23.68;60.43;96969.72;4218278;28;5676;-73
2022/06/03 12:08:07;;;;;;;;;;;;;;;23.65;60.71;96969.44;4217351;28;5592;-72
2022/06/03 12:10:16;;;;;;;;;;;;;;;23.60;60.23;96959.47;4217368;28;5665;-72
2022/06/03 12:15:19;;;;;;;;;;;;;;;23.57;60.37;96954.59;4217838;28;6486;-72
2022/06/03 12:17:33;;;;;;;;;;;;;;;23.60;60.37;96942.47;4216817;28;5680;-71
2022/06/03 12:19:43;;;;;;;;;;;;;;;23.61;60.33;96934.09;4217762;28;5680;-72
2022/06/03 12:21:57;;;;;;;;;;;;;;;23.67;60.17;96935.72;4216920;28;5755;-72
2022/06/03 12:24:25;;;;;;;;;;;;;;;23.70;60.50;96924.38;4215040;28;5675;-72
2022/06/03 12:26:31;;;;;;;;;;;;;;;23.74;60.27;96932.72;4217962;28;5705;-72
2022/06/03 12:28:45;;;;;;;;;;;;;;;23.75;60.25;96935.13;4216053;28;5679;-71
2022/06/03 12:30:51;;;;;;;;;;;;;;;23.76;60.13;96936.75;4217700;28;5684;-71
2022/06/03 12:32:57;;;;;;;;;;;;;;;23.80;59.66;96929.75;4216788;28;5739;-71
2022/06/03 12:35:35;;;;;;;;;;;;;;;23.80;59.60;96927.03;4215578;28;5684;-69
2022/06/03 12:37:38;;;;;;;;;;;;;;;23.80;59.89;96924.34;4216703;28;7405;-70
2022/06/03 12:39:59;;;;;;;;;;;;;;;23.83;59.59;96914.06;4215566;28;5760;-72
2022/06/03 12:42:33;;;;;;;;;;;;;;;23.85;59.90;96901.91;4200691;28;5805;-71
2022/06/03 12:44:47;;;;;;;;;;;;;;;23.85;59.44;96895.72;4200763;28;5827;-72
2022/06/03 12:46:50;;;;;;;;;;;;;;;23.86;59.47;96891.91;4201405;28;5780;-78
2022/06/03 12:48:53;;;;;;;;;;;;;;;23.85;59.41;96890.31;4213239;28;5700;-78
2022/06/03 12:51:20;;;;;;;;;;;;;;;23.88;59.31;96889.75;4219102;28;5691;-78
2022/06/03 12:53:35;;;;;;;;;;;;;;;23.93;59.00;96882.44;4219437;28;5687;-78
2022/06/03 12:55:42;;;;;;;;;;;;;;;23.98;59.12;96881.63;4217643;28;5827;-77
2022/06/03 12:57:50;;;;;;;;;;;;;;;24.01;59.12;96881.88;4206715;28;5639;-77
2022/06/03 12:59:59;;;;;;;;;;;;;;;24.03;58.61;96871.63;4203553;28;5693;-78
2022/06/03 13:02:15;;;;;;;;;;;;;;;24.06;58.89;96870.25;4220297;28;5176;-78
2022/06/03 13:04:46;;;;;;;;;;;;;;;24.09;58.66;96880.47;4222145;28;5676;-78
2022/06/03 13:07:31;;;;;;;;;;;;;;;24.14;58.28;96876.97;4221182;28;5664;-78
2022/06/03 13:09:51;;;;;;;;;;;;;;;24.13;58.13;96876.16;4215849;28;5778;-77
2022/06/03 13:11:56;;;;;;;;;;;;;;;24.14;57.99;96872.38;4208307;28;5736;-76
2022/06/03 13:14:18;;;;;;;;;;;;;;;24.15;58.01;96870.47;4222405;28;5785;-77
2022/06/03 13:16:41;;;;;;;;;;;;;;;24.20;57.92;96873.94;4223747;28;5866;-77
2022/06/03 13:18:46;;;;;;;;;;;;;;;24.24;57.77;96866.13;4214561;28;5822;-77
2022/06/03 13:21:11;;;;;;;;;;;;;;;24.23;57.83;96870.69;4221441;28;5685;-77
2022/06/03 13:23:35;;;;;;;;;;;;;;;24.25;57.46;96868.53;4221627;28;5668;-77
2022/06/03 13:25:38;;;;;;;;;;;;;;;24.26;57.29;96870.16;4221220;28;5689;-78
2022/06/03 13:28:19;;;;;;;;;;;;;;;24.26;57.29;96867.44;4221041;28;6253;-77
2022/06/03 13:30:36;;;;;;;;;;;;;;;24.26;56.93;96870.16;4221367;28;5828;-77
2022/06/03 13:32:55;;;;;;;;;;;;;;;24.28;56.94;96867.97;4205207;28;6908;-77
2022/06/03 13:35:07;;;;;;;;;;;;;;;24.30;57.09;96868.53;4210053;28;5664;-78
2022/06/03 13:37:45;;;;;;;;;;;;;;;24.32;56.88;96879.84;4213738;28;5653;-78
2022/06/03 13:40:36;;;;;;;;;;;;;;;24.33;57.01;96867.97;4216920;28;5777;-78
2022/06/03 13:43:00;;;;;;;;;;;;;;;24.35;56.96;96876.63;4213155;28;5771;-78
2022/06/03 13:45:20;;;;;;;;;;;;;;;24.34;56.83;96872.28;4217890;28;6436;-77
2022/06/03 13:47:26;;;;;;;;;;;;;;;24.33;56.80;96865.25;4219599;28;5793;-78
2022/06/03 13:49:29;;;;;;;;;;;;;;;24.33;57.22;96872.56;4207349;28;5627;-76
2022/06/03 13:51:58;;;;;;;;;;;;;;;24.33;57.08;96865.25;4218744;28;5693;-78
2022/06/03 13:54:06;;;;;;;;;;;;;;;24.30;57.11;96860.41;4219396;28;5680;-78
2022/06/03 13:56:21;;;;;;;;;;;;;;;24.32;56.95;96858.25;4207116;28;5907;-77
2022/06/03 13:58:31;;;;;;;;;;;;;;;24.35;56.60;96863.09;4206098;28;5820;-77
2022/06/03 14:00:38;;;;;;;;;;;;;;;24.35;56.89;96852.31;4214182;28;5631;-77
2022/06/03 14:02:43;;;;;;;;;;;;;;;24.32;56.85;96841.22;4220059;28;5660;-78
2022/06/03 14:04:50;;;;;;;;;;;;;;;24.36;56.63;96850.41;4219587;28;6330;-77
2022/06/03 14:06:58;;;;;;;;;;;;;;;24.37;56.84;96850.13;4221223;28;5680;-77
2022/06/03 14:09:16;;;;;;;;;;;;;;;24.37;56.79;96844.72;4217439;28;5697;-77
2022/06/03 14:11:22;;;;;;;;;;;;;;;24.34;56.61;96845.25;4220589;28;5758;-77
2022/06/03 14:13:35;;;;;;;;;;;;;;;24.36;56.37;96845.81;4222090;28;5651;-78
2022/06/03 14:15:41;;;;;;;;;;;;;;;24.37;56.74;96850.13;4206580;28;6372;-77
2022/06/03 14:17:55;;;;;;;;;;;;;;;24.39;56.95;96847.13;4220964;28;5804;-78
2022/06/03 14:20:04;;;;;;;;;;;;;;;24.38;56.56;96854.44;4220434;28;5765;-76
2022/06/03 14:22:15;;;;;;;;;;;;;;;24.41;56.51;96850.38;4220111;28;5806;-77
2022/06/03 14:24:23;;;;;;;;;;;;;;;24.38;56.75;96848.22;4214335;28;5730;-77
2022/06/03 14:26:32;;;;;;;;;;;;;;;24.39;56.67;96841.72;4219557;28;5763;-76
2022/06/03 14:28:41;;;;;;;;;;;;;;;24.39;56.56;96853.34;4218469;28;5811;-76
2022/06/03 14:30:57;;;;;;;;;;;;;;;24.38;56.93;96845.53;4218990;28;6468;-77
2022/06/03 14:33:01;;;;;;;;;;;;;;;24.39;56.84;96842.53;4217559;28;7264;-77
2022/06/03 14:35:10;;;;;;;;;;;;;;;24.35;56.79;96844.19;4219074;28;5767;-76
2022/06/03 14:37:18;;;;;;;;;;;;;;;24.31;56.87;96843.13;4210774;28;5796;-77
2022/06/03 14:39:25;;;;;;;;;;;;;;;24.33;57.10;96849.03;4216469;28;5806;-76
2022/06/03 14:41:33;;;;;;;;;;;;;;;24.33;56.75;96849.03;4219560;28;5941;-77
2022/06/03 14:43:41;;;;;;;;;;;;;;;24.32;56.61;96842.03;4220973;28;5713;-77
2022/06/03 14:45:48;;;;;;;;;;;;;;;24.29;56.66;96837.16;4213840;28;5766;-77
2022/06/03 14:47:56;;;;;;;;;;;;;;;24.26;57.15;96832.31;4218754;28;5767;-75
2022/06/03 14:50:05;;;;;;;;;;;;;;;24.23;57.32;96835.56;4213591;28;5753;-78
2022/06/03 14:52:13;;;;;;;;;;;;;;;24.21;57.43;96835.03;4218158;28;5774;-77
2022/06/03 14:54:22;;;;;;;;;;;;;;;24.22;57.11;96827.75;4219969;28;5861;-77
2022/06/03 14:56:32;;;;;;;;;;;;;;;24.25;57.42;96829.91;4214943;28;5767;-77
2022/06/03 14:58:43;;;;;;;;;;;;;;;24.27;57.46;96819.63;4215117;28;6620;-75
2022/06/03 15:00:53;;;;;;;;;;;;;;;24.28;57.24;96819.34;4207484;28;5791;-75
2022/06/03 15:03:07;;;;;;;;;;;;;;;24.31;57.26;96820.69;4208061;28;5771;-75
2022/06/03 15:05:15;;;;;;;;;;;;;;;24.33;57.20;96811.22;4210605;28;5792;-76
2022/06/03 15:07:23;;;;;;;;;;;;;;;24.34;57.49;96815.53;4211639;28;5827;-76
2022/06/03 15:09:33;;;;;;;;;;;;;;;24.35;57.41;96810.94;4212565;28;5774;-76
2022/06/03 15:11:41;;;;;;;;;;;;;;;24.41;57.55;96817.13;4213850;28;5862;-76
2022/06/03 15:13:51;;;;;;;;;;;;;;;24.45;57.14;96820.88;4209097;28;5763;-76
2022/06/03 15:15:54;;;;;;;;;;;;;;;24.45;57.50;96818.16;4210578;28;5849;-77
2022/06/03 15:17:57;;;;;;;;;;;;;;;24.45;57.09;96812.78;4208260;28;5913;-77
2022/06/03 15:20:03;;;;;;;;;;;;;;;24.47;57.34;96821.44;4210460;28;5815;-76
2022/06/03 15:22:11;;;;;;;;;;;;;;;24.50;57.00;96818.16;4209934;28;5787;-77
2022/06/03 15:24:14;;;;;;;;;;;;;;;24.52;57.07;96813.28;4210578;28;5799;-74
2022/06/03 15:26:20;;;;;;;;;;;;;;;24.56;56.94;96819.72;4214536;28;5899;-73
2022/06/03 15:28:28;;;;;;;;;;;;;;;24.56;56.94;96812.41;4215543;28;5844;-72
2022/06/03 15:30:36;;;;;;;;;;;;;;;24.59;56.76;96819.16;4212912;28;5779;-66
2022/06/03 15:32:41;;;;;;;;;;;;;;;24.61;56.99;96817.00;4207444;28;5878;-64
2022/06/03 15:34:45;;;;;;;;;;;;;;;24.65;56.96;96818.03;4211645;28;7800;-68
2022/06/03 15:36:51;;;;;;;;;;;;;;;24.66;56.98;96811.53;4214524;28;5819;-69
2022/06/03 15:38:56;;;;;;;;;;;;;;;24.66;56.91;96811.53;4212761;28;5786;-69
2022/06/03 15:41:01;;;;;;;;;;;;;;;24.67;56.88;96813.94;4212353;28;5767;-67
2022/06/03 15:43:07;;;;;;;;;;;;;;;24.69;56.70;96811.00;4216133;28;5664;-69
2022/06/03 15:45:37;;;;;;;;;;;;;;;24.73;56.83;96816.63;4209118;28;5782;-70
2022/06/03 15:47:42;;;;;;;;;;;;;;;24.75;56.66;96809.84;4216825;28;5672;-70
2022/06/03 15:49:50;;;;;;;;;;;;;;;24.75;56.66;96801.72;4217928;28;5668;-70
2022/06/03 15:51:53;;;;;;;;;;;;;;;24.77;57.02;96802.25;4216741;28;5609;-70
2022/06/03 15:53:59;;;;;;;;;;;;;;;24.79;56.55;96793.84;4217760;28;6889;-70
2022/06/03 15:56:20;;;;;;;;;;;;;;;24.81;56.40;96794.41;4216520;28;5734;-71
2022/06/03 15:58:30;;;;;;;;;;;;;;;24.82;56.44;96793.31;4201409;28;5808;-70
2022/06/03 16:00:38;;;;;;;;;;;;;;;24.82;56.22;96791.41;4200255;28;5651;-70
2022/06/03 16:02:56;;;;;;;;;;;;;;;24.84;56.53;96789.22;4201469;28;5772;-70
2022/06/03 16:05:12;;;;;;;;;;;;;;;24.87;56.50;96795.94;4201133;28;5689;-70
2022/06/03 16:07:30;;;;;;;;;;;;;;;24.88;56.39;96795.66;4201107;28;5744;-70
2022/06/03 16:09:42;;;;;;;;;;;;;;;24.88;56.39;96784.84;4201047;28;5689;-70
2022/06/03 16:12:01;;;;;;;;;;;;;;;24.90;56.50;96784.56;4201042;28;5681;-70
2022/06/03 16:14:14;;;;;;;;;;;;;;;24.90;56.48;96790.78;4201273;28;5681;-70
2022/06/03 16:16:30;;;;;;;;;;;;;;;24.90;56.17;96787.25;4201270;28;5788;-70
2022/06/03 16:18:54;;;;;;;;;;;;;;;24.91;56.00;96784.25;4200097;28;5552;-70
2022/06/03 16:21:01;;;;;;;;;;;;;;;24.92;56.29;96785.91;4201302;28;5693;-70
2022/06/03 16:23:23;;;;;;;;;;;;;;;24.91;55.87;96778.84;4201162;28;6355;-70
2022/06/03 16:25:29;;;;;;;;;;;;;;;24.91;55.98;96773.44;4200644;28;6356;-70
2022/06/03 16:28:15;;;;;;;;;;;;;;;24.92;55.88;96777.00;4200927;28;5689;-70
2022/06/03 16:30:23;;;;;;;;;;;;;;;24.92;56.24;96780.50;4199582;28;5809;-69
2022/06/03 16:32:41;;;;;;;;;;;;;;;24.93;55.91;96782.09;4199845;28;5655;-69
2022/06/03 16:34:53;;;;;;;;;;;;;;;24.91;56.07;96773.44;4199595;28;5642;-69
2022/06/03 16:37:08;;;;;;;;;;;;;;;24.95;56.16;96774.50;4200874;28;5704;-69
2022/06/03 16:39:31;;;;;;;;;;;;;;;24.93;56.15;96770.50;4199494;28;5819;-69
2022/06/03 16:41:41;;;;;;;;;;;;;;;24.93;55.92;96771.28;4179488;28;5702;-70
2022/06/03 16:43:53;;;;;;;;;;;;;;;24.93;56.05;96776.69;4217851;28;5782;-71
2022/06/03 16:46:10;;;;;;;;;;;;;;;24.94;56.14;96767.50;4217617;28;5657;-70
2022/06/03 16:48:23;;;;;;;;;;;;;;;24.95;56.18;96765.59;4216886;28;5672;-70
2022/06/03 16:50:30;;;;;;;;;;;;;;;24.92;56.04;96758.88;4217602;28;5070;-70
2022/06/03 16:52:38;;;;;;;;;;;;;;;24.91;56.16;96759.94;4216168;28;5810;-69
2022/06/03 16:54:55;;;;;;;;;;;;;;;24.93;56.01;96765.09;4217260;28;5931;-70
2022/06/03 16:57:02;;;;;;;;;;;;;;;24.92;56.27;96764.28;4213282;28;5788;-70